SAVC

Comodoro Rivadavia/General Enrique Mosconi International Airport

Airport
ICAO code
SAVC
IATA Code
CRD
Summary
ICAO Region
CARSAM
ICAO Territory
Location

Comodoro Rivadavia, Chubut

Serving
Comodoro Rivadavia
Elevation
190 ft
Coordinates
45° 47' 12" S , 67° 27' 57" W
Metar
Observation
SAVC 021700Z 28031G46KT 3000 BLDU NSC 26/02 Q0999 RMK PP000
Station
Comodoro Rivadavia Aerodrome
Date/Time
2022-12-02 17:00:00
Wind direction
280°
Wind speed
31 kts
Lowest cloud amount
n/a
Temperature
26°C
Dew point
2°C
Humidity
21%
QNH
999 hPa
Weather condition
n/a

General Enrique Mosconi International Airport is an international airport in the Chubut Province, Argentina serving Comodoro Rivadavia. The airfield is located 11 km of the city.

Runways

Designator Length Width Surface Rops
7/25 2810 50 CON No/No

Airport map

Aerial View

SKYbrary Partners:

Safety knowledge contributed by: